Roncesvalles Navarra

latitud = 43° 00' 31''N | longitud = 001° 19' 32''W
940 metros sobre el nivel del mar | datos mensuales

Fecha, hora, temperatura, viento dirección y velocidad, humedad y presión.

  • 25-09-2017 00:00:00 | 12.90°C | Calma |0.00 km/h | 95.00% | 0.00 hPa
  • 24-09-2017 23:00:00 | 12.80°C | Calma |0.00 km/h | 94.00% | 0.00 hPa
  • 24-09-2017 22:00:00 | 13.30°C | Calma |0.00 km/h | 93.00% | 0.00 hPa
  • 24-09-2017 21:00:00 | 14.50°C | Calma |0.00 km/h | 89.00% | 0.00 hPa
  • 24-09-2017 20:00:00 | 15.70°C | Noroeste |2.00 km/h | 82.00% | 0.00 hPa
  • 24-09-2017 19:00:00 | 18.40°C | Norte |5.00 km/h | 72.00% | 0.00 hPa
  • 24-09-2017 18:00:00 | 22.70°C | Noroeste |2.00 km/h | 57.00% | 0.00 hPa
  • 24-09-2017 17:00:00 | 24.40°C | Sudoeste |5.00 km/h | 48.00% | 0.00 hPa
  • 24-09-2017 16:00:00 | 24.00°C | Sudoeste |8.00 km/h | 44.00% | 0.00 hPa
  • 24-09-2017 15:00:00 | 23.50°C | Sudoeste |8.00 km/h | 51.00% | 0.00 hPa
  • 24-09-2017 14:00:00 | 22.50°C | Sudoeste |9.00 km/h | 51.00% | 0.00 hPa
  • 24-09-2017 13:00:00 | 22.00°C | Sur |8.00 km/h | 59.00% | 0.00 hPa
  • 24-09-2017 12:00:00 | 21.10°C | Sur |5.00 km/h | 65.00% | 0.00 hPa
  • 24-09-2017 11:00:00 | 18.50°C | Sur |2.00 km/h | 77.00% | 0.00 hPa
  • 24-09-2017 10:00:00 | 14.90°C | Calma |0.00 km/h | 95.00% | 0.00 hPa
  • 24-09-2017 09:00:00 | 11.80°C | Calma |0.00 km/h | 100.00% | 0.00 hPa
  • 24-09-2017 08:00:00 | 10.70°C | Calma |0.00 km/h | 100.00% | 0.00 hPa
  • 24-09-2017 07:00:00 | 10.30°C | Calma |0.00 km/h | 100.00% | 0.00 hPa
  • 24-09-2017 06:00:00 | 10.90°C | Norte |2.00 km/h | 100.00% | 0.00 hPa
  • 24-09-2017 05:00:00 | 10.40°C | Calma |0.00 km/h | 100.00% | 0.00 hPa
  • 24-09-2017 04:00:00 | 10.20°C | Calma |0.00 km/h | 100.00% | 0.00 hPa
  • 24-09-2017 03:00:00 | 10.60°C | Noroeste |2.00 km/h | 100.00% | 0.00 hPa
  • 24-09-2017 02:00:00 | 10.70°C | Calma |0.00 km/h | 100.00% | 0.00 hPa
  • 24-09-2017 01:00:00 | 11.00°C | Calma |0.00 km/h | 100.00% | 0.00 hPa